Time;durP1;ratioP1;P1;durP2;ratioP2;P2;SDS_P1;SDS_P2;PMS_P1;PMS_P2;Temp;Humidity;BMP_temperature;BMP_pressure;BME280_temperature;BME280_humidity;BME280_pressure;Samples;Min_cycle;Max_cycle;Signal;HPM_P1;HPM_P2
2023/02/20 00:00:06;;;;;;;17.80;16.47;;;3.60;99.90;;;;;;5018637;28;20182;-45
2023/02/20 00:02:31;;;;;;;17.95;16.60;;;3.70;99.90;;;;;;5019958;28;20182;-44
2023/02/20 00:04:57;;;;;;;18.87;17.37;;;3.60;99.90;;;;;;5020170;28;20670;-45
2023/02/20 00:07:22;;;;;;;18.57;17.17;;;3.50;99.90;;;;;;5019647;28;20186;-47
2023/02/20 00:09:48;;;;;;;19.10;17.60;;;3.60;99.90;;;;;;5019641;28;20533;-48
2023/02/20 00:12:14;;;;;;;17.60;16.50;;;3.60;99.90;;;;;;5019401;28;20708;-44
2023/02/20 00:14:39;;;;;;;19.17;17.47;;;3.70;99.90;;;;;;5019500;28;20453;-46
2023/02/20 00:17:05;;;;;;;17.83;16.43;;;3.70;99.90;;;;;;5019691;28;20178;-43
2023/02/20 00:19:30;;;;;;;18.13;16.63;;;3.80;99.90;;;;;;5018851;28;20190;-46
2023/02/20 00:21:56;;;;;;;17.50;16.30;;;3.80;99.90;;;;;;5019776;28;20184;-47
2023/02/20 00:24:21;;;;;;;16.80;15.60;;;3.80;99.90;;;;;;5019407;28;20703;-42
2023/02/20 00:26:52;;;;;;;17.83;16.53;;;3.90;99.90;;;;;;5019624;28;20618;-47
2023/02/20 00:29:20;;;;;;;17.50;16.20;;;3.90;99.90;;;;;;5019247;28;20181;-44
2023/02/20 00:31:54;;;;;;;18.10;16.65;;;3.90;99.90;;;;;;5019557;28;20206;-47
2023/02/20 00:34:21;;;;;;;17.42;16.23;;;3.90;99.90;;;;;;5019437;28;20209;-43
2023/02/20 00:36:46;;;;;;;17.65;16.20;;;3.90;99.90;;;;;;5019119;28;20659;-46
2023/02/20 00:39:13;;;;;;;17.20;16.10;;;3.90;99.90;;;;;;5018677;28;20269;-45
2023/02/20 00:41:39;;;;;;;18.25;16.85;;;3.90;99.90;;;;;;5018561;28;20189;-45
2023/02/20 00:44:05;;;;;;;17.80;16.50;;;3.90;99.90;;;;;;5019505;28;20625;-43
2023/02/20 00:46:30;;;;;;;17.63;16.43;;;3.90;99.90;;;;;;5018504;28;20193;-46
2023/02/20 00:48:57;;;;;;;17.87;16.60;;;3.80;99.90;;;;;;5019350;28;20196;-44
2023/02/20 00:51:23;;;;;;;17.90;16.60;;;3.90;99.90;;;;;;5018953;28;20525;-45
2023/02/20 00:53:49;;;;;;;17.17;15.87;;;3.80;99.90;;;;;;5018813;28;20174;-45
2023/02/20 00:56:14;;;;;;;16.70;15.60;;;3.90;99.90;;;;;;5017691;28;20210;-47
2023/02/20 00:58:40;;;;;;;17.70;16.30;;;3.90;99.90;;;;;;5019076;28;20259;-43
2023/02/20 01:01:06;;;;;;;18.17;16.97;;;3.80;99.90;;;;;;5019345;28;20195;-43
2023/02/20 01:03:32;;;;;;;17.45;16.15;;;3.80;99.90;;;;;;5019084;28;20596;-42
2023/02/20 01:05:58;;;;;;;16.53;15.33;;;3.90;99.90;;;;;;5018982;28;20202;-47
2023/02/20 01:08:23;;;;;;;16.83;15.73;;;3.90;99.90;;;;;;5019048;28;20269;-44
2023/02/20 01:10:50;;;;;;;17.47;16.30;;;3.90;99.90;;;;;;5019583;28;20779;-45
2023/02/20 01:13:15;;;;;;;15.85;14.85;;;3.90;99.90;;;;;;5018539;28;20983;-47
2023/02/20 01:15:41;;;;;;;16.90;15.70;;;4.00;99.90;;;;;;5019361;28;20201;-42
2023/02/20 01:18:07;;;;;;;16.60;15.50;;;4.10;99.90;;;;;;5018162;28;20722;-46
2023/02/20 01:20:32;;;;;;;16.40;15.30;;;4.10;99.90;;;;;;5019099;28;20243;-45
2023/02/20 01:22:58;;;;;;;16.37;15.37;;;4.10;99.90;;;;;;5018899;28;20676;-43
2023/02/20 01:25:24;;;;;;;17.17;15.97;;;4.20;99.90;;;;;;5018877;28;20182;-43
2023/02/20 01:27:49;;;;;;;16.00;15.00;;;4.20;99.90;;;;;;5018664;28;20316;-48
2023/02/20 01:30:15;;;;;;;17.00;15.77;;;4.30;99.90;;;;;;5018766;28;20293;-45
2023/02/20 01:32:41;;;;;;;17.17;15.87;;;4.30;99.90;;;;;;5018897;28;20185;-45
2023/02/20 01:35:06;;;;;;;16.60;15.50;;;4.20;99.90;;;;;;5018686;28;20578;-45
2023/02/20 01:37:32;;;;;;;17.33;16.00;;;4.30;99.90;;;;;;5018803;28;20194;-42
2023/02/20 01:39:58;;;;;;;16.77;15.57;;;4.20;99.90;;;;;;5018839;28;20202;-47
2023/02/20 01:42:27;;;;;;;16.70;15.50;;;4.20;99.90;;;;;;5017567;28;20632;-43
2023/02/20 01:44:52;;;;;;;16.63;15.52;;;4.20;99.90;;;;;;5018731;28;20193;-44
2023/02/20 01:47:20;;;;;;;16.23;15.20;;;4.30;99.90;;;;;;5017931;28;20537;-43
2023/02/20 01:49:56;;;;;;;16.35;15.18;;;4.30;99.90;;;;;;5018641;28;20178;-46
2023/02/20 01:52:28;;;;;;;16.88;15.77;;;4.30;99.90;;;;;;5020914;28;20914;-45
2023/02/20 01:55:04;;;;;;;16.98;15.55;;;4.30;99.90;;;;;;5021826;28;20609;-46
2023/02/20 01:57:34;;;;;;;16.05;15.05;;;4.30;99.90;;;;;;5020394;28;20179;-46
2023/02/20 02:00:08;;;;;;;16.40;15.30;;;4.40;99.90;;;;;;5021958;28;20511;-47
2023/02/20 02:02:39;;;;;;;16.60;15.40;;;4.40;99.90;;;;;;5022315;28;20621;-43
2023/02/20 02:05:08;;;;;;;16.27;15.05;;;4.40;99.90;;;;;;5022225;28;20198;-45
2023/02/20 02:07:34;;;;;;;15.85;14.75;;;4.40;99.90;;;;;;5022080;28;20533;-45
2023/02/20 02:10:05;;;;;;;16.73;15.38;;;4.50;99.90;;;;;;5021772;28;20186;-44
2023/02/20 02:12:31;;;;;;;16.98;15.88;;;4.40;99.90;;;;;;5021778;28;20226;-44
2023/02/20 02:14:57;;;;;;;16.97;15.80;;;4.30;99.90;;;;;;5021275;28;20240;-44
2023/02/20 02:17:49;;;;;;;16.73;15.53;;;4.30;99.90;;;;;;5020594;28;20182;-46
2023/02/20 02:20:39;;;;;;;16.25;15.15;;;4.20;99.90;;;;;;5020585;28;20194;-43
2023/02/20 02:23:10;;;;;;;16.27;15.02;;;4.10;99.90;;;;;;5021693;28;20186;-45
2023/02/20 02:25:36;;;;;;;15.63;14.52;;;4.20;99.90;;;;;;5020699;28;20191;-45
2023/02/20 02:28:23;;;;;;;16.40;15.20;;;4.30;99.90;;;;;;5020726;28;20189;-43
2023/02/20 02:31:12;;;;;;;16.50;15.32;;;4.20;99.90;;;;;;5021605;28;20206;-44
2023/02/20 02:34:06;;;;;;;16.20;15.02;;;4.20;99.90;;;;;;5021053;28;20232;-45
2023/02/20 02:36:35;;;;;;;16.55;15.35;;;4.20;99.90;;;;;;5021849;28;20259;-43
2023/02/20 02:39:12;;;;;;;16.38;15.07;;;4.30;99.90;;;;;;5021149;28;20273;-44
2023/02/20 02:41:53;;;;;;;15.90;14.70;;;4.30;99.90;;;;;;5020999;28;20190;-43
2023/02/20 02:44:27;;;;;;;16.25;15.02;;;4.30;99.90;;;;;;5021617;28;20182;-43
2023/02/20 02:47:04;;;;;;;16.50;15.30;;;4.40;99.90;;;;;;5021279;28;20534;-43
2023/02/20 02:49:37;;;;;;;15.32;14.32;;;4.40;99.90;;;;;;5021078;28;20191;-48
2023/02/20 02:52:04;;;;;;;15.77;14.60;;;4.40;99.90;;;;;;5021639;28;20204;-46
2023/02/20 02:54:30;;;;;;;16.50;15.50;;;4.40;99.90;;;;;;5020384;28;20266;-47
2023/02/20 02:57:31;;;;;;;16.17;15.10;;;4.50;99.90;;;;;;5020913;28;20198;-41
2023/02/20 03:00:01;;;;;;;16.38;15.23;;;4.50;99.90;;;;;;4984134;28;20331;-43
2023/02/20 03:02:32;;;;;;;16.38;15.18;;;4.50;99.90;;;;;;5016270;28;20270;-42
2023/02/20 03:05:00;;;;;;;17.25;15.90;;;4.50;99.90;;;;;;5020990;28;20187;-44
2023/02/20 03:07:27;;;;;;;16.15;15.15;;;4.50;99.90;;;;;;5020530;28;20210;-46
2023/02/20 03:10:15;;;;;;;17.00;15.73;;;4.50;99.90;;;;;;5020827;28;20645;-44
2023/02/20 03:12:43;;;;;;;16.40;15.20;;;4.60;99.90;;;;;;5020628;28;20226;-45
2023/02/20 03:15:32;;;;;;;15.82;14.82;;;4.60;99.90;;;;;;5020365;28;20183;-45
2023/02/20 03:18:19;;;;;;;16.70;15.50;;;4.60;99.90;;;;;;5020660;28;20265;-47
2023/02/20 03:20:53;;;;;;;15.80;14.90;;;4.70;99.90;;;;;;5020634;28;20190;-49
2023/02/20 03:23:32;;;;;;;16.20;15.15;;;4.70;99.90;;;;;;5020962;28;20711;-46
2023/02/20 03:26:16;;;;;;;16.70;15.40;;;4.80;99.90;;;;;;5020794;28;20652;-48
2023/02/20 03:28:47;;;;;;;15.90;14.90;;;4.80;99.90;;;;;;5020602;28;20735;-46
2023/02/20 03:31:20;;;;;;;16.05;14.80;;;4.80;99.90;;;;;;5018633;28;20237;-49
2023/02/20 03:45:22;;;;;;;16.48;15.30;;;5.00;99.90;;;;;;5020369;28;20266;-45
2023/02/20 03:47:51;;;;;;;16.13;15.02;;;5.00;99.90;;;;;;5018806;28;20197;-44
2023/02/20 03:50:18;;;;;;;16.65;15.38;;;5.10;99.90;;;;;;5020120;28;20191;-45
2023/02/20 03:52:43;;;;;;;17.02;15.70;;;5.20;99.90;;;;;;5020089;28;20260;-44
2023/02/20 03:55:09;;;;;;;15.93;14.80;;;5.30;99.90;;;;;;5019941;28;20191;-50
2023/02/20 03:57:47;;;;;;;15.97;14.80;;;5.30;99.90;;;;;;5018446;28;20193;-45
2023/02/20 04:00:18;;;;;;;14.90;13.90;;;5.40;99.90;;;;;;5019764;28;20420;-46
2023/02/20 04:02:48;;;;;;;15.57;14.48;;;5.50;99.90;;;;;;5019876;28;20202;-42
2023/02/20 04:05:19;;;;;;;16.15;14.85;;;5.60;99.90;;;;;;5020020;28;20183;-44
2023/02/20 04:07:49;;;;;;;16.35;15.25;;;5.80;99.90;;;;;;5019898;28;20468;-48
2023/02/20 04:10:22;;;;;;;16.15;14.95;;;5.90;99.90;;;;;;5020014;28;20205;-44
2023/02/20 04:12:49;;;;;;;16.35;15.15;;;6.10;99.90;;;;;;5019650;28;20679;-46
2023/02/20 04:15:17;;;;;;;16.08;14.85;;;6.30;99.90;;;;;;5015260;28;20645;-43
2023/02/20 04:17:50;;;;;;;15.52;14.50;;;6.40;99.90;;;;;;5019825;28;20178;-46
2023/02/20 04:20:16;;;;;;;16.67;15.38;;;6.50;99.90;;;;;;5019126;28;20276;-49
2023/02/20 04:22:45;;;;;;;15.63;14.52;;;6.60;99.90;;;;;;5019854;28;20182;-47
2023/02/20 04:25:26;;;;;;;15.57;14.47;;;6.70;99.90;;;;;;5019728;28;20237;-46
2023/02/20 04:27:52;;;;;;;15.95;14.75;;;6.80;99.90;;;;;;5019881;28;20413;-45
2023/02/20 04:30:17;;;;;;;14.87;13.87;;;6.80;99.90;;;;;;5019802;28;20214;-46
2023/02/20 04:32:43;;;;;;;15.10;14.10;;;6.80;99.90;;;;;;5019598;28;21158;-47
2023/02/20 04:35:16;;;;;;;15.53;14.40;;;6.90;99.90;;;;;;5019514;28;20479;-43
2023/02/20 04:37:42;;;;;;;15.38;14.18;;;6.90;99.90;;;;;;5019997;28;20414;-44
2023/02/20 04:40:10;;;;;;;14.93;13.93;;;6.90;99.90;;;;;;5019606;28;20196;-45
2023/02/20 04:42:36;;;;;;;15.10;14.10;;;7.00;99.90;;;;;;5018941;28;20229;-45
2023/02/20 04:45:01;;;;;;;16.13;15.03;;;7.00;99.90;;;;;;5018765;28;20512;-47
2023/02/20 04:47:27;;;;;;;14.93;13.93;;;7.10;99.90;;;;;;5018301;28;20819;-44
2023/02/20 04:49:52;;;;;;;16.00;14.80;;;7.10;99.90;;;;;;5019214;28;20600;-45
2023/02/20 04:52:18;;;;;;;15.00;14.00;;;7.10;99.90;;;;;;5019876;28;20183;-44
2023/02/20 04:54:44;;;;;;;15.50;14.40;;;7.30;99.90;;;;;;5019263;28;20189;-46
2023/02/20 04:57:09;;;;;;;16.47;15.27;;;7.30;99.90;;;;;;5017977;28;20231;-45
2023/02/20 04:59:35;;;;;;;15.03;13.93;;;7.30;99.90;;;;;;5017788;28;20225;-44
2023/02/20 05:02:00;;;;;;;15.20;14.07;;;7.30;99.90;;;;;;5019717;28;20530;-43
2023/02/20 05:04:27;;;;;;;15.40;14.30;;;7.40;99.90;;;;;;5019669;28;20217;-48
2023/02/20 05:06:54;;;;;;;15.97;14.77;;;7.40;99.90;;;;;;5019347;28;20181;-43
2023/02/20 05:09:21;;;;;;;15.47;14.40;;;7.40;99.90;;;;;;5018932;28;20432;-43
2023/02/20 05:11:46;;;;;;;17.50;16.20;;;7.40;99.90;;;;;;5017520;28;20480;-46
2023/02/20 05:14:13;;;;;;;17.50;16.23;;;7.50;99.90;;;;;;5018068;28;20444;-47
2023/02/20 05:16:39;;;;;;;16.00;14.80;;;7.50;99.90;;;;;;5019340;28;20195;-44
2023/02/20 05:19:06;;;;;;;16.07;14.77;;;7.50;99.90;;;;;;5017236;28;20433;-45
2023/02/20 05:24:16;;;;;;;16.87;15.57;;;7.70;99.90;;;;;;5019187;28;20431;-48
2023/02/20 05:26:42;;;;;;;17.13;15.83;;;7.70;99.90;;;;;;5020730;28;20421;-42
2023/02/20 05:29:11;;;;;;;18.30;16.80;;;7.70;99.90;;;;;;5022277;28;20203;-48
2023/02/20 05:31:39;;;;;;;16.40;15.20;;;7.70;99.90;;;;;;5023102;28;20818;-43
2023/02/20 05:34:06;;;;;;;17.37;16.07;;;7.80;99.90;;;;;;5021991;28;20436;-44
2023/02/20 05:36:32;;;;;;;17.03;15.73;;;7.80;99.90;;;;;;5022717;28;21030;-45
2023/02/20 05:38:58;;;;;;;17.80;16.40;;;7.80;99.90;;;;;;5021894;28;20551;-45
2023/02/20 05:41:23;;;;;;;15.87;14.77;;;7.80;99.90;;;;;;5022922;28;20837;-42
2023/02/20 05:43:49;;;;;;;18.30;16.90;;;7.80;99.90;;;;;;5022461;28;20539;-42
2023/02/20 05:46:16;;;;;;;16.70;15.40;;;7.80;99.90;;;;;;5022196;28;20237;-42
2023/02/20 05:48:41;;;;;;;18.17;16.63;;;7.80;99.90;;;;;;5022630;28;20187;-47
2023/02/20 05:51:07;;;;;;;16.37;15.17;;;7.80;99.90;;;;;;5022660;28;20546;-48
2023/02/20 05:53:33;;;;;;;16.40;15.03;;;7.90;99.90;;;;;;5022669;28;20194;-49
2023/02/20 05:55:59;;;;;;;16.10;14.80;;;7.90;99.90;;;;;;5021734;28;20193;-45
2023/02/20 05:58:25;;;;;;;17.87;16.50;;;7.90;99.90;;;;;;5019596;28;20437;-45
2023/02/20 06:00:51;;;;;;;16.27;15.07;;;8.00;99.90;;;;;;5020893;28;20178;-45
2023/02/20 06:03:17;;;;;;;16.50;15.27;;;8.00;99.90;;;;;;5020494;28;20535;-45
2023/02/20 06:05:43;;;;;;;17.40;16.10;;;7.90;99.90;;;;;;5021022;28;20449;-45
2023/02/20 06:08:09;;;;;;;16.47;15.27;;;7.90;99.90;;;;;;5021543;28;20444;-47
2023/02/20 06:10:35;;;;;;;17.23;15.83;;;7.80;99.90;;;;;;5020441;28;20526;-46
2023/02/20 06:13:00;;;;;;;16.90;15.60;;;7.80;99.90;;;;;;5021016;28;20488;-44
2023/02/20 06:15:26;;;;;;;15.40;14.20;;;7.70;99.90;;;;;;5021379;28;20182;-43
2023/02/20 06:17:52;;;;;;;15.73;14.63;;;7.70;99.90;;;;;;5020896;28;20190;-43
2023/02/20 06:20:19;;;;;;;18.07;16.60;;;7.80;99.90;;;;;;5020888;28;20516;-44
2023/02/20 06:22:49;;;;;;;15.60;14.40;;;7.70;99.90;;;;;;5021161;28;20440;-48
2023/02/20 06:25:15;;;;;;;15.13;14.00;;;7.80;99.90;;;;;;5020483;28;20538;-43
2023/02/20 06:27:40;;;;;;;15.53;14.43;;;7.80;99.90;;;;;;5017431;28;20520;-46
2023/02/20 06:30:07;;;;;;;16.67;15.37;;;7.70;99.90;;;;;;5020515;28;20437;-44
2023/02/20 06:32:33;;;;;;;16.23;14.83;;;7.70;99.90;;;;;;5021487;28;20731;-43
2023/02/20 06:34:59;;;;;;;16.40;15.30;;;7.80;99.90;;;;;;5019853;28;20440;-45
2023/02/20 06:37:24;;;;;;;15.33;14.03;;;7.90;99.90;;;;;;5017299;28;20278;-46
2023/02/20 06:39:50;;;;;;;16.60;15.20;;;7.90;99.90;;;;;;5018920;28;20652;-43
2023/02/20 06:42:20;;;;;;;15.60;14.43;;;7.90;99.90;;;;;;5011091;28;20205;-46
2023/02/20 06:44:46;;;;;;;15.60;14.40;;;8.00;99.90;;;;;;5018545;28;20183;-44
2023/02/20 06:47:12;;;;;;;14.73;13.40;;;8.20;99.90;;;;;;5018617;28;20495;-46
2023/02/20 06:49:40;;;;;;;15.77;14.57;;;8.20;99.90;;;;;;5021231;28;20198;-43
2023/02/20 06:52:07;;;;;;;14.90;13.80;;;8.30;99.90;;;;;;5018687;28;20562;-49
2023/02/20 06:54:33;;;;;;;16.03;14.83;;;8.30;99.90;;;;;;5019635;28;20433;-44
2023/02/20 06:56:59;;;;;;;14.60;13.53;;;8.30;99.90;;;;;;5020625;28;20498;-43
2023/02/20 06:59:38;;;;;;;14.20;13.20;;;8.40;99.90;;;;;;5019229;28;20522;-46
2023/02/20 07:02:04;;;;;;;14.37;13.37;;;8.40;99.90;;;;;;5019989;28;20441;-44
2023/02/20 07:04:30;;;;;;;14.93;13.93;;;8.30;99.90;;;;;;5020689;28;20475;-44
2023/02/20 07:06:56;;;;;;;14.80;13.90;;;8.40;99.90;;;;;;5019622;28;21045;-49
2023/02/20 07:09:23;;;;;;;14.40;13.37;;;8.40;99.90;;;;;;5020575;28;20214;-47
2023/02/20 07:11:52;;;;;;;15.73;14.43;;;8.50;99.90;;;;;;5019419;28;20544;-48
2023/02/20 07:14:17;;;;;;;15.43;14.23;;;8.50;99.90;;;;;;5019837;28;20538;-50
2023/02/20 07:16:43;;;;;;;14.50;13.60;;;8.50;99.90;;;;;;5019637;28;20528;-45
2023/02/20 07:19:08;;;;;;;14.57;13.67;;;8.50;99.90;;;;;;5019237;28;20174;-45
2023/02/20 07:21:34;;;;;;;14.57;13.60;;;8.50;99.90;;;;;;5018542;28;20284;-44
2023/02/20 07:23:59;;;;;;;14.87;13.97;;;8.50;99.90;;;;;;5018484;28;20568;-44
2023/02/20 07:26:27;;;;;;;13.80;13.00;;;8.60;99.90;;;;;;5018874;28;20194;-43
2023/02/20 07:28:53;;;;;;;13.90;13.00;;;8.80;99.90;;;;;;5018933;28;20201;-44
2023/02/20 07:31:22;;;;;;;13.63;12.83;;;8.80;99.90;;;;;;5018274;28;20509;-48
2023/02/20 07:33:47;;;;;;;14.27;13.47;;;8.80;99.90;;;;;;5020113;28;20970;-44
2023/02/20 07:36:14;;;;;;;14.73;13.87;;;8.90;99.90;;;;;;5019225;28;20548;-48
2023/02/20 07:38:40;;;;;;;13.40;12.60;;;8.90;99.90;;;;;;5019031;28;20194;-48
2023/02/20 07:41:06;;;;;;;14.90;14.00;;;8.90;99.90;;;;;;5019152;28;20457;-42
2023/02/20 07:43:32;;;;;;;13.20;12.40;;;9.10;99.90;;;;;;5019092;28;20545;-49
2023/02/20 07:45:57;;;;;;;12.97;12.17;;;9.20;99.90;;;;;;5018111;28;20441;-43
2023/02/20 07:48:23;;;;;;;13.70;12.90;;;9.20;99.90;;;;;;5019070;28;20192;-43
2023/02/20 07:50:49;;;;;;;11.40;10.70;;;9.20;99.90;;;;;;5018967;28;20473;-48
2023/02/20 07:53:18;;;;;;;12.97;12.17;;;9.20;99.90;;;;;;5019308;28;20187;-46
2023/02/20 07:55:43;;;;;;;13.70;12.90;;;9.30;99.90;;;;;;5019779;28;20903;-46
2023/02/20 07:58:09;;;;;;;13.57;12.83;;;9.50;99.90;;;;;;5017775;28;20441;-46
2023/02/20 08:00:35;;;;;;;13.10;12.30;;;9.50;99.90;;;;;;5019100;28;20658;-49
2023/02/20 08:03:01;;;;;;;13.67;12.90;;;9.60;99.90;;;;;;5019448;28;20196;-46
2023/02/20 08:05:27;;;;;;;13.33;12.63;;;9.70;99.90;;;;;;5018603;28;20452;-42
2023/02/20 08:07:53;;;;;;;11.87;11.23;;;9.90;99.90;;;;;;5018252;28;20201;-46
2023/02/20 08:10:22;;;;;;;13.70;12.90;;;10.00;99.70;;;;;;5019620;28;20827;-46
2023/02/20 08:12:48;;;;;;;13.80;13.00;;;10.10;98.40;;;;;;5018546;28;20693;-46
2023/02/20 08:15:14;;;;;;;12.17;11.47;;;10.20;98.70;;;;;;5020138;28;20842;-46
2023/02/20 08:17:40;;;;;;;13.23;12.43;;;10.20;98.20;;;;;;5017134;28;20461;-46
2023/02/20 08:20:07;;;;;;;12.60;11.80;;;10.20;96.10;;;;;;5018029;28;20182;-46
2023/02/20 08:22:33;;;;;;;13.23;12.50;;;10.20;95.20;;;;;;5018846;28;20440;-44
2023/02/20 08:24:59;;;;;;;12.63;11.93;;;10.30;92.90;;;;;;5017487;28;20454;-43
2023/02/20 08:27:26;;;;;;;12.20;11.50;;;10.30;95.80;;;;;;5016275;28;20447;-47
2023/02/20 08:29:52;;;;;;;12.57;11.87;;;10.50;94.60;;;;;;5017684;28;20220;-43
2023/02/20 08:32:17;;;;;;;20.17;18.70;;;10.90;94.90;;;;;;5017189;28;21410;-45
2023/02/20 08:34:43;;;;;;;14.43;13.63;;;11.40;92.20;;;;;;5017730;28;20542;-44
2023/02/20 08:37:09;;;;;;;14.77;13.97;;;11.60;89.50;;;;;;5018447;28;20190;-45
2023/02/20 08:39:35;;;;;;;13.70;12.90;;;11.70;89.30;;;;;;5018199;28;20190;-45
2023/02/20 08:42:01;;;;;;;13.13;12.23;;;11.80;87.60;;;;;;5018619;28;20277;-43
2023/02/20 08:44:26;;;;;;;14.00;13.20;;;12.10;83.40;;;;;;5019330;28;20457;-46
2023/02/20 08:46:52;;;;;;;14.47;13.60;;;12.50;79.90;;;;;;5018663;28;20193;-44
2023/02/20 08:49:18;;;;;;;14.40;13.60;;;12.40;77.60;;;;;;5018293;28;20579;-44
2023/02/20 08:51:45;;;;;;;13.90;13.03;;;12.40;79.00;;;;;;5017204;28;20994;-43
2023/02/20 08:54:11;;;;;;;15.50;14.70;;;12.70;82.70;;;;;;5017117;28;20193;-42
2023/02/20 08:56:37;;;;;;;14.80;13.80;;;12.90;79.30;;;;;;5016978;28;20862;-45
2023/02/20 08:59:03;;;;;;;14.20;13.40;;;13.20;78.20;;;;;;5018463;28;20531;-43
2023/02/20 09:01:28;;;;;;;14.50;13.40;;;13.20;79.80;;;;;;5018834;28;20493;-45
2023/02/20 09:03:54;;;;;;;13.93;13.13;;;13.40;78.40;;;;;;5022619;28;20483;-44
2023/02/20 09:06:23;;;;;;;14.17;13.37;;;13.30;78.80;;;;;;5021588;28;20186;-44
2023/02/20 09:08:49;;;;;;;13.00;12.30;;;13.40;76.90;;;;;;5022121;28;20571;-47
2023/02/20 09:11:14;;;;;;;13.90;13.20;;;13.60;77.30;;;;;;5022112;28;20852;-44
2023/02/20 09:13:48;;;;;;;11.73;11.17;;;13.90;75.10;;;;;;5021934;28;20241;-45
2023/02/20 09:16:15;;;;;;;13.03;12.33;;;14.00;71.20;;;;;;5022251;28;20240;-45
2023/02/20 09:18:43;;;;;;;13.40;12.70;;;13.70;68.20;;;;;;5020976;28;20464;-44
2023/02/20 09:21:10;;;;;;;12.53;11.73;;;13.50;71.00;;;;;;5022889;28;20436;-46
2023/02/20 09:23:36;;;;;;;12.47;11.87;;;13.40;72.00;;;;;;5021230;28;20451;-44
2023/02/20 09:26:02;;;;;;;12.07;11.37;;;13.00;74.60;;;;;;5021360;28;20456;-46
2023/02/20 09:28:28;;;;;;;11.03;10.47;;;12.90;73.50;;;;;;5021273;28;20949;-43
2023/02/20 09:30:56;;;;;;;10.67;10.07;;;12.70;75.60;;;;;;5021821;28;20645;-45
2023/02/20 09:33:22;;;;;;;11.70;11.10;;;12.60;76.50;;;;;;5021910;28;20344;-46
2023/02/20 09:35:51;;;;;;;13.83;12.93;;;12.70;78.70;;;;;;5021216;28;20504;-48
2023/02/20 09:38:17;;;;;;;12.90;12.10;;;12.50;77.20;;;;;;5022334;28;20448;-45
2023/02/20 09:40:45;;;;;;;11.80;11.20;;;12.30;78.70;;;;;;5021283;28;20904;-46
2023/02/20 09:43:35;;;;;;;11.30;10.63;;;12.50;79.00;;;;;;5020052;28;20893;-45
2023/02/20 09:46:05;;;;;;;11.27;10.77;;;12.60;78.20;;;;;;5022394;28;20946;-46
2023/02/20 09:49:03;;;;;;;11.60;11.00;;;12.60;77.70;;;;;;5021639;28;20446;-45
2023/02/20 09:51:36;;;;;;;12.47;11.73;;;12.70;81.80;;;;;;5003941;28;20505;-44
2023/02/20 09:54:21;;;;;;;11.80;11.23;;;12.70;78.80;;;;;;5021939;28;20447;-46
2023/02/20 09:56:54;;;;;;;11.67;11.17;;;12.50;78.70;;;;;;5020630;28;20890;-46
2023/02/20 09:59:46;;;;;;;11.70;11.10;;;12.60;80.60;;;;;;5021831;28;20795;-46
2023/02/20 10:02:32;;;;;;;12.20;11.60;;;12.50;79.90;;;;;;5021117;28;20929;-48
2023/02/20 10:05:03;;;;;;;11.60;11.10;;;12.50;78.30;;;;;;5022918;28;20970;-44
2023/02/20 10:07:35;;;;;;;12.40;11.70;;;12.50;79.40;;;;;;5020400;28;20589;-46
2023/02/20 10:10:22;;;;;;;12.37;11.70;;;12.50;79.10;;;;;;5020229;28;20449;-48
2023/02/20 10:13:06;;;;;;;12.50;11.90;;;12.60;78.60;;;;;;5020944;28;20516;-44
2023/02/20 10:15:50;;;;;;;12.40;11.80;;;12.60;79.50;;;;;;5021383;28;20674;-44
2023/02/20 10:18:38;;;;;;;11.37;10.77;;;12.60;80.00;;;;;;5021647;28;20424;-48
2023/02/20 10:21:10;;;;;;;12.83;12.23;;;12.70;79.50;;;;;;5020272;28;20428;-45
2023/02/20 10:23:42;;;;;;;12.80;12.20;;;12.70;79.60;;;;;;5019562;28;20446;-46
2023/02/20 10:26:22;;;;;;;12.10;11.40;;;12.70;75.80;;;;;;5020854;28;20466;-43
2023/02/20 10:28:49;;;;;;;11.50;10.97;;;12.60;75.50;;;;;;5021891;28;20779;-47
2023/02/20 10:31:44;;;;;;;11.97;11.40;;;12.50;77.50;;;;;;5021336;28;20473;-45
2023/02/20 10:34:36;;;;;;;12.57;11.93;;;12.50;76.30;;;;;;5019551;28;20448;-44
2023/02/20 10:37:14;;;;;;;12.10;11.47;;;12.50;78.50;;;;;;5002498;28;20465;-44
2023/02/20 10:39:49;;;;;;;11.30;10.80;;;12.60;75.70;;;;;;5018855;28;20921;-46
2023/02/20 10:42:33;;;;;;;11.50;10.97;;;12.70;75.20;;;;;;5020241;28;20446;-48
2023/02/20 10:45:13;;;;;;;11.67;11.07;;;12.70;76.90;;;;;;5021839;28;20414;-43
2023/02/20 10:48:04;;;;;;;11.37;10.87;;;12.60;75.10;;;;;;5019748;28;20443;-49
2023/02/20 10:50:37;;;;;;;10.43;9.87;;;12.70;75.50;;;;;;5020560;28;21180;-46
2023/02/20 10:53:26;;;;;;;10.40;9.90;;;12.70;73.90;;;;;;5018238;28;20443;-44
2023/02/20 10:56:10;;;;;;;10.97;10.27;;;12.70;77.60;;;;;;5020502;28;20432;-47
2023/02/20 10:58:49;;;;;;;10.80;10.30;;;12.80;73.20;;;;;;5019715;28;20435;-46
2023/02/20 11:01:20;;;;;;;10.77;10.17;;;12.80;73.10;;;;;;5020380;28;20529;-43
2023/02/20 11:03:45;;;;;;;10.73;10.13;;;12.90;71.40;;;;;;5020086;28;20471;-43
2023/02/20 11:06:14;;;;;;;10.80;10.30;;;13.00;73.40;;;;;;5020398;28;20451;-45
2023/02/20 11:08:41;;;;;;;10.70;10.20;;;13.20;71.00;;;;;;5019740;28;20247;-46
2023/02/20 11:11:32;;;;;;;11.03;10.53;;;13.10;69.00;;;;;;5017190;28;20555;-44
2023/02/20 11:14:09;;;;;;;10.80;10.30;;;13.00;69.20;;;;;;5015127;28;20810;-47
2023/02/20 11:16:41;;;;;;;10.57;10.07;;;13.20;71.20;;;;;;5036250;28;20436;-46
2023/02/20 11:19:19;;;;;;;11.30;10.80;;;13.20;69.90;;;;;;5018796;28;20442;-45
2023/02/20 11:21:47;;;;;;;11.50;11.00;;;13.40;67.30;;;;;;5019176;28;20433;-43
2023/02/20 11:24:19;;;;;;;10.60;10.10;;;13.40;65.30;;;;;;5012959;28;20454;-44
2023/02/20 11:26:47;;;;;;;10.57;10.03;;;13.20;65.80;;;;;;5019312;28;20482;-45
2023/02/20 11:29:15;;;;;;;11.47;10.87;;;13.20;67.90;;;;;;5017953;28;20534;-46
2023/02/20 11:31:42;;;;;;;11.33;10.73;;;13.20;64.90;;;;;;5019847;28;20478;-45
2023/02/20 11:34:16;;;;;;;11.23;10.73;;;13.40;68.30;;;;;;5020051;28;20534;-44
2023/02/20 11:36:47;;;;;;;10.80;10.30;;;13.60;63.90;;;;;;5018936;28;20503;-47
2023/02/20 11:39:21;;;;;;;11.50;11.00;;;13.60;63.40;;;;;;5019323;28;20437;-46
2023/02/20 11:41:50;;;;;;;11.43;10.83;;;13.80;63.10;;;;;;5017342;28;20433;-44
2023/02/20 11:44:20;;;;;;;10.93;10.43;;;14.30;62.70;;;;;;5019082;28;20438;-45
2023/02/20 11:46:46;;;;;;;12.20;11.60;;;14.40;61.30;;;;;;5019315;28;20425;-47
2023/02/20 11:49:28;;;;;;;11.43;10.93;;;14.70;58.80;;;;;;5020612;28;20420;-47
2023/02/20 11:52:15;;;;;;;11.40;10.90;;;14.90;57.00;;;;;;5020155;28;20456;-45
2023/02/20 11:54:42;;;;;;;10.73;10.20;;;15.10;55.60;;;;;;5019899;28;20421;-45
2023/02/20 11:57:29;;;;;;;11.50;10.90;;;15.30;54.30;;;;;;5019380;28;20989;-48
2023/02/20 12:00:11;;;;;;;11.23;10.73;;;15.50;54.50;;;;;;5019835;28;20409;-45
2023/02/20 12:02:50;;;;;;;10.67;10.17;;;15.40;52.90;;;;;;5018488;28;20779;-48
2023/02/20 12:05:17;;;;;;;10.93;10.50;;;15.40;53.50;;;;;;5020674;28;20448;-46
2023/02/20 12:07:51;;;;;;;11.30;10.80;;;15.50;53.10;;;;;;5018715;28;20495;-43
2023/02/20 12:10:43;;;;;;;11.27;10.70;;;15.60;54.70;;;;;;5019536;28;21176;-45
2023/02/20 12:13:14;;;;;;;10.83;10.33;;;15.80;52.20;;;;;;5033222;28;20827;-45
2023/02/20 12:15:42;;;;;;;11.00;10.50;;;15.80;51.50;;;;;;5018372;28;20437;-45
2023/02/20 12:18:56;;;;;;;10.60;10.10;;;15.40;51.90;;;;;;5019518;28;20970;-44
2023/02/20 12:21:36;;;;;;;8.70;8.30;;;15.20;53.20;;;;;;5010359;28;20543;-46
2023/02/20 12:24:26;;;;;;;10.37;9.97;;;15.00;54.50;;;;;;5012356;28;20437;-47
2023/02/20 12:26:58;;;;;;;9.70;9.30;;;15.30;54.50;;;;;;5007411;28;20456;-46
2023/02/20 12:29:34;;;;;;;9.03;8.63;;;16.00;54.50;;;;;;5014677;28;20947;-44
2023/02/20 12:32:13;;;;;;;11.70;11.20;;;16.40;51.60;;;;;;5014316;28;20476;-44
2023/02/20 12:34:58;;;;;;;11.07;10.67;;;16.50;50.70;;;;;;5012530;28;20881;-44
2023/02/20 12:37:48;;;;;;;10.00;9.60;;;16.50;49.80;;;;;;5002797;28;21331;-49
2023/02/20 12:40:22;;;;;;;10.80;10.13;;;16.70;50.60;;;;;;4997322;28;20508;-45
2023/02/20 12:43:06;;;;;;;9.83;9.43;;;16.80;50.40;;;;;;4990571;28;20525;-45
2023/02/20 12:45:38;;;;;;;10.20;9.80;;;16.90;50.60;;;;;;4982561;28;20616;-42
2023/02/20 12:48:16;;;;;;;11.10;10.60;;;16.90;50.60;;;;;;4983290;28;20473;-48
2023/02/20 12:50:56;;;;;;;10.47;10.07;;;16.90;50.10;;;;;;4984003;28;20479;-44
2023/02/20 12:53:27;;;;;;;9.77;9.37;;;16.70;50.60;;;;;;5006400;28;20424;-45
2023/02/20 12:56:21;;;;;;;10.80;10.30;;;16.20;51.70;;;;;;5018943;28;20425;-48
2023/02/20 12:58:52;;;;;;;10.80;10.40;;;16.20;52.50;;;;;;5019113;28;21120;-49
2023/02/20 13:01:22;;;;;;;10.60;10.20;;;15.90;52.60;;;;;;5019387;28;20503;-44
2023/02/20 13:03:59;;;;;;;10.77;10.07;;;15.80;53.00;;;;;;5019644;28;20421;-46